createdAt,value
2018-03-31T00:00:34.774Z,992.06
2018-03-31T00:01:34.769Z,992.06
2018-03-31T00:02:34.738Z,992.09
2018-03-31T00:03:34.719Z,992.08
2018-03-31T00:04:34.703Z,992.09
2018-03-31T00:05:34.688Z,992.06
2018-03-31T00:06:34.671Z,992.07
2018-03-31T00:07:34.646Z,992.09
2018-03-31T00:08:34.634Z,992.05
2018-03-31T00:09:34.612Z,992.12
2018-03-31T00:10:34.598Z,992.13
2018-03-31T00:11:34.576Z,992.09
2018-03-31T00:12:34.554Z,992.09
2018-03-31T00:13:34.539Z,992.11
2018-03-31T00:14:34.529Z,992.11
2018-03-31T00:15:34.509Z,992.06
2018-03-31T00:16:34.484Z,992.06
2018-03-31T00:17:34.487Z,992.05
2018-03-31T00:18:34.455Z,992.04
2018-03-31T00:19:34.435Z,992.02
2018-03-31T00:20:34.416Z,992.07
2018-03-31T00:21:34.396Z,992.04
2018-03-31T00:22:34.379Z,992.07
2018-03-31T00:23:34.358Z,992.05
2018-03-31T00:24:34.342Z,992.07
2018-03-31T00:25:34.328Z,992.00
2018-03-31T00:26:34.310Z,991.99
2018-03-31T00:27:34.289Z,991.95
2018-03-31T00:28:34.273Z,992.01
2018-03-31T00:29:34.259Z,992.02
2018-03-31T00:30:34.233Z,992.03
2018-03-31T00:31:34.226Z,992.05
2018-03-31T00:32:34.202Z,992.10
2018-03-31T00:33:34.182Z,992.15
2018-03-31T00:34:34.168Z,992.16
2018-03-31T00:35:34.144Z,992.19
2018-03-31T00:36:34.128Z,992.21
2018-03-31T00:37:34.108Z,992.21
2018-03-31T00:38:34.089Z,992.19
2018-03-31T00:39:34.077Z,992.20
2018-03-31T00:40:34.062Z,992.15
2018-03-31T00:41:34.039Z,992.12
2018-03-31T00:42:34.020Z,992.12
2018-03-31T00:43:33.999Z,992.13
2018-03-31T00:44:33.986Z,992.14
2018-03-31T00:45:33.969Z,992.12
2018-03-31T00:46:33.948Z,992.11
2018-03-31T00:47:33.927Z,992.11
2018-03-31T00:48:33.910Z,992.17
2018-03-31T00:49:33.891Z,992.19
2018-03-31T00:50:33.877Z,992.24
2018-03-31T00:51:33.860Z,992.28
2018-03-31T00:52:33.837Z,992.24
2018-03-31T00:53:33.825Z,992.26
2018-03-31T00:54:33.800Z,992.22
2018-03-31T00:55:33.784Z,992.21
2018-03-31T00:56:33.763Z,992.20
2018-03-31T00:57:33.751Z,992.19
2018-03-31T00:58:33.732Z,992.21
2018-03-31T00:59:33.711Z,992.16
2018-03-31T01:00:33.700Z,992.17
2018-03-31T01:01:33.675Z,992.17
2018-03-31T01:02:33.656Z,992.14
2018-03-31T01:03:33.638Z,992.11
2018-03-31T01:04:33.621Z,992.07
2018-03-31T01:05:33.602Z,992.09
2018-03-31T01:06:33.591Z,992.06
2018-03-31T01:07:33.567Z,992.07
2018-03-31T01:08:33.550Z,992.09
2018-03-31T01:09:33.529Z,992.08
2018-03-31T01:10:33.510Z,992.09
2018-03-31T01:11:33.492Z,992.05
2018-03-31T01:12:33.471Z,992.07
2018-03-31T01:13:33.455Z,992.08
2018-03-31T01:14:33.439Z,992.09
2018-03-31T01:15:33.415Z,992.07
2018-03-31T01:16:33.399Z,992.08
2018-03-31T01:17:33.378Z,992.06
2018-03-31T01:18:33.361Z,992.04
2018-03-31T01:19:33.344Z,992.02
2018-03-31T01:20:33.332Z,992.06
2018-03-31T01:21:33.311Z,992.05
2018-03-31T01:22:33.289Z,992.04
2018-03-31T01:23:33.270Z,992.04
2018-03-31T01:24:33.252Z,992.01
2018-03-31T01:25:33.237Z,992.02
2018-03-31T01:26:33.219Z,992.03
2018-03-31T01:27:33.199Z,991.97
2018-03-31T01:28:33.179Z,992.02
2018-03-31T01:29:33.166Z,992.05
2018-03-31T01:30:33.144Z,992.06
2018-03-31T01:31:33.126Z,992.02
2018-03-31T01:32:33.110Z,992.02
2018-03-31T01:33:33.085Z,992.01
2018-03-31T01:34:33.069Z,992.02
2018-03-31T01:35:33.059Z,991.97
2018-03-31T01:36:33.033Z,991.99
2018-03-31T01:37:33.015Z,991.97
2018-03-31T01:38:32.996Z,991.99
2018-03-31T01:39:32.976Z,991.97
2018-03-31T01:40:32.963Z,991.96
2018-03-31T01:41:32.941Z,991.94
2018-03-31T01:42:32.921Z,991.96
2018-03-31T01:43:32.906Z,991.95
2018-03-31T01:44:32.885Z,991.93
2018-03-31T01:45:32.866Z,991.93
2018-03-31T01:46:32.848Z,991.96
2018-03-31T01:47:32.829Z,991.98
2018-03-31T01:48:32.811Z,991.94
2018-03-31T01:49:32.795Z,991.98
2018-03-31T01:50:32.784Z,991.98
2018-03-31T01:51:32.756Z,992.00
2018-03-31T01:52:32.737Z,991.98
2018-03-31T01:53:32.719Z,991.99
2018-03-31T01:54:32.709Z,992.00
2018-03-31T01:55:32.689Z,992.00
2018-03-31T01:56:32.673Z,991.97
2018-03-31T01:57:32.646Z,991.99
2018-03-31T01:58:32.630Z,992.01
2018-03-31T01:59:32.608Z,992.00
2018-03-31T02:00:32.591Z,992.01
2018-03-31T02:01:32.573Z,991.96
2018-03-31T02:02:32.563Z,991.94
2018-03-31T02:03:32.541Z,991.96
2018-03-31T02:04:32.519Z,991.93
2018-03-31T02:05:32.500Z,991.94
2018-03-31T02:06:32.538Z,991.94
2018-03-31T02:07:32.464Z,991.93
2018-03-31T02:08:32.449Z,991.92
2018-03-31T02:09:32.429Z,991.92
2018-03-31T02:10:32.410Z,991.97
2018-03-31T02:11:32.400Z,991.92
2018-03-31T02:12:32.373Z,991.91
2018-03-31T02:13:32.351Z,991.91
2018-03-31T02:14:32.333Z,991.86
2018-03-31T02:15:32.319Z,991.84
2018-03-31T02:16:32.296Z,991.85
2018-03-31T02:17:32.279Z,991.84
2018-03-31T02:18:32.258Z,991.82
2018-03-31T02:19:32.246Z,991.81
2018-03-31T02:20:32.229Z,991.86
2018-03-31T02:21:32.211Z,991.85
2018-03-31T02:22:32.189Z,991.81
2018-03-31T02:23:32.165Z,991.83
2018-03-31T02:24:32.149Z,991.83
2018-03-31T02:25:32.128Z,991.83
2018-03-31T02:26:32.117Z,991.80
2018-03-31T02:27:32.099Z,991.80
2018-03-31T02:28:32.079Z,991.79
2018-03-31T02:29:32.055Z,991.84
2018-03-31T02:30:32.039Z,991.80
2018-03-31T02:31:32.019Z,991.81
2018-03-31T02:32:32.001Z,991.81
2018-03-31T02:33:31.986Z,991.84
2018-03-31T02:34:31.973Z,991.85
2018-03-31T02:35:31.951Z,991.85
2018-03-31T02:36:31.930Z,991.82
2018-03-31T02:37:31.912Z,991.84
2018-03-31T02:38:31.890Z,991.78
2018-03-31T02:39:31.868Z,991.76
2018-03-31T02:40:31.849Z,991.73
2018-03-31T02:41:31.837Z,991.73
2018-03-31T02:42:31.822Z,991.71
2018-03-31T02:43:31.797Z,991.72
2018-03-31T02:44:31.780Z,991.76
2018-03-31T02:45:31.762Z,991.76
2018-03-31T02:46:31.741Z,991.77
2018-03-31T02:47:31.720Z,991.78
2018-03-31T02:48:31.712Z,991.77
2018-03-31T02:49:31.691Z,991.71
2018-03-31T02:50:31.670Z,991.73
2018-03-31T02:51:31.658Z,991.70
2018-03-31T02:52:31.630Z,991.70
2018-03-31T02:53:31.610Z,991.71
2018-03-31T02:54:31.595Z,991.69
2018-03-31T02:55:31.580Z,991.69
2018-03-31T02:56:31.552Z,991.71
2018-03-31T02:57:31.541Z,991.66
2018-03-31T02:58:31.522Z,991.67
2018-03-31T02:59:31.503Z,991.69
2018-03-31T03:00:31.484Z,991.71
2018-03-31T03:01:31.470Z,991.70
2018-03-31T03:02:31.451Z,991.69
2018-03-31T03:03:31.427Z,991.70
2018-03-31T03:04:31.413Z,991.76
2018-03-31T03:05:31.390Z,991.72
2018-03-31T03:06:31.371Z,991.76
2018-03-31T03:07:31.350Z,991.76
2018-03-31T03:08:31.331Z,991.77
2018-03-31T03:09:31.324Z,991.83
2018-03-31T03:10:31.301Z,991.82
2018-03-31T03:11:31.277Z,991.81
2018-03-31T03:12:31.261Z,991.81
2018-03-31T03:13:31.242Z,991.84
2018-03-31T03:14:31.225Z,991.87
2018-03-31T03:15:31.204Z,991.87
2018-03-31T03:16:31.191Z,991.90
2018-03-31T03:17:31.172Z,991.89
2018-03-31T03:18:31.148Z,991.88
2018-03-31T03:19:31.134Z,991.88
2018-03-31T03:20:31.109Z,991.83
2018-03-31T03:21:31.090Z,991.84
2018-03-31T03:22:31.088Z,991.83
2018-03-31T03:23:31.059Z,991.86
2018-03-31T03:24:31.037Z,991.83
2018-03-31T03:25:31.017Z,991.88
2018-03-31T03:26:31.000Z,991.84
2018-03-31T03:27:30.983Z,991.88
2018-03-31T03:28:30.960Z,991.88
2018-03-31T03:29:30.944Z,991.90
2018-03-31T03:30:30.932Z,991.89
2018-03-31T03:31:30.907Z,991.89
2018-03-31T03:32:30.890Z,991.89
2018-03-31T03:33:30.879Z,991.92
2018-03-31T03:34:30.850Z,991.94
2018-03-31T03:35:30.832Z,991.93
2018-03-31T03:36:30.821Z,991.97
2018-03-31T03:37:30.798Z,991.95
2018-03-31T03:38:30.782Z,991.97
2018-03-31T03:39:30.761Z,991.98
2018-03-31T03:40:30.742Z,991.98
2018-03-31T03:41:30.722Z,992.02
2018-03-31T03:42:30.701Z,992.01
2018-03-31T03:43:30.683Z,992.03
2018-03-31T03:44:30.666Z,992.09
2018-03-31T03:45:30.649Z,992.07
2018-03-31T03:46:30.626Z,992.07
2018-03-31T03:47:30.606Z,992.09
2018-03-31T03:48:30.590Z,992.13
2018-03-31T03:49:30.577Z,992.17
2018-03-31T03:50:30.552Z,992.22
2018-03-31T03:51:30.538Z,992.22
2018-03-31T03:52:30.516Z,992.18
2018-03-31T03:53:30.495Z,992.21
2018-03-31T03:54:30.479Z,992.23
2018-03-31T03:55:30.457Z,992.24
2018-03-31T03:56:30.452Z,992.24
2018-03-31T03:57:30.430Z,992.30
2018-03-31T03:58:30.408Z,992.28
2018-03-31T03:59:30.387Z,992.29
2018-03-31T04:00:30.374Z,992.29
2018-03-31T04:01:30.350Z,992.32
2018-03-31T04:02:30.330Z,992.29
2018-03-31T04:03:30.311Z,992.34
2018-03-31T04:04:30.295Z,992.32
2018-03-31T04:05:30.280Z,992.33
2018-03-31T04:06:30.256Z,992.35
2018-03-31T04:07:30.241Z,992.39
2018-03-31T04:08:30.220Z,992.35
2018-03-31T04:09:30.200Z,992.38
2018-03-31T04:10:30.183Z,992.39
2018-03-31T04:11:30.169Z,992.34
2018-03-31T04:12:30.152Z,992.34
2018-03-31T04:13:30.127Z,992.33
2018-03-31T04:14:30.106Z,992.33
2018-03-31T04:15:30.094Z,992.34
2018-03-31T04:16:30.071Z,992.36
2018-03-31T04:17:30.056Z,992.37
2018-03-31T04:18:30.040Z,992.42
2018-03-31T04:19:30.019Z,992.41
2018-03-31T04:20:29.999Z,992.42
2018-03-31T04:21:29.978Z,992.43
2018-03-31T04:22:29.960Z,992.44
2018-03-31T04:23:29.944Z,992.43
2018-03-31T04:24:29.930Z,992.47
2018-03-31T04:25:29.904Z,992.48
2018-03-31T04:26:29.890Z,992.49
2018-03-31T04:27:29.869Z,992.48
2018-03-31T04:28:29.849Z,992.49
2018-03-31T04:29:29.828Z,992.50
2018-03-31T04:30:29.814Z,992.49
2018-03-31T04:31:29.789Z,992.50
2018-03-31T04:32:29.783Z,992.50
2018-03-31T04:33:29.765Z,992.51
2018-03-31T04:34:29.739Z,992.51
2018-03-31T04:35:29.720Z,992.51
2018-03-31T04:36:29.700Z,992.52
2018-03-31T04:37:29.679Z,992.50
2018-03-31T04:38:29.658Z,992.49
2018-03-31T04:39:29.640Z,992.53
2018-03-31T04:40:29.627Z,992.49
2018-03-31T04:41:29.609Z,992.49
2018-03-31T04:42:29.584Z,992.46
2018-03-31T04:43:29.569Z,992.46
2018-03-31T04:44:29.546Z,992.47
2018-03-31T04:45:29.528Z,992.49
2018-03-31T04:46:29.508Z,992.50
2018-03-31T04:47:29.489Z,992.51
2018-03-31T04:48:29.469Z,992.47
2018-03-31T04:49:29.452Z,992.45
2018-03-31T04:50:29.438Z,992.47
2018-03-31T04:51:29.420Z,992.48
2018-03-31T04:52:29.399Z,992.46
2018-03-31T04:53:29.377Z,992.51
2018-03-31T04:54:29.361Z,992.54
2018-03-31T04:55:29.340Z,992.50
2018-03-31T04:56:29.320Z,992.53
2018-03-31T04:57:29.305Z,992.56
2018-03-31T04:58:29.287Z,992.55
2018-03-31T04:59:29.262Z,992.58
2018-03-31T05:00:29.249Z,992.54
2018-03-31T05:01:29.227Z,992.54
2018-03-31T05:02:29.214Z,992.56
2018-03-31T05:03:29.194Z,992.53
2018-03-31T05:04:29.169Z,992.51
2018-03-31T05:05:29.149Z,992.52
2018-03-31T05:06:29.138Z,992.47
2018-03-31T05:07:29.120Z,992.51
2018-03-31T05:08:29.096Z,992.47
2018-03-31T05:09:29.090Z,992.45
2018-03-31T05:10:29.061Z,992.44
2018-03-31T05:11:29.038Z,992.47
2018-03-31T05:12:29.018Z,992.46
2018-03-31T05:13:29.002Z,992.43
2018-03-31T05:14:28.989Z,992.45
2018-03-31T05:15:28.963Z,992.44
2018-03-31T05:16:28.949Z,992.45
2018-03-31T05:17:28.931Z,992.44
2018-03-31T05:18:28.906Z,992.43
2018-03-31T05:19:28.893Z,992.46
2018-03-31T05:20:28.873Z,992.44
2018-03-31T05:21:28.851Z,992.46
2018-03-31T05:22:28.830Z,992.46
2018-03-31T05:23:28.820Z,992.48
2018-03-31T05:24:28.796Z,992.49
2018-03-31T05:25:28.778Z,992.47
2018-03-31T05:26:28.818Z,992.49
2018-03-31T05:27:28.742Z,992.48
2018-03-31T05:28:28.720Z,992.47
2018-03-31T05:29:28.699Z,992.50
2018-03-31T05:30:28.680Z,992.50
2018-03-31T05:31:28.658Z,992.51
2018-03-31T05:32:28.647Z,992.48
2018-03-31T05:33:28.624Z,992.46
2018-03-31T05:34:28.613Z,992.48
2018-03-31T05:35:28.585Z,992.48
2018-03-31T05:36:28.568Z,992.45
2018-03-31T05:37:28.546Z,992.40
2018-03-31T05:38:28.530Z,992.42
2018-03-31T05:39:28.510Z,992.41
2018-03-31T05:40:28.490Z,992.42
2018-03-31T05:41:28.474Z,992.42
2018-03-31T05:42:28.452Z,992.44
2018-03-31T05:43:28.433Z,992.42
2018-03-31T05:44:28.420Z,992.41
2018-03-31T05:45:28.397Z,992.44
2018-03-31T05:46:28.380Z,992.48
2018-03-31T05:47:28.358Z,992.45
2018-03-31T05:48:28.340Z,992.48
2018-03-31T05:49:28.318Z,992.50
2018-03-31T05:50:28.302Z,992.53
2018-03-31T05:51:28.284Z,992.53
2018-03-31T05:52:28.270Z,992.57
2018-03-31T05:53:28.248Z,992.55
2018-03-31T05:54:28.229Z,992.59
2018-03-31T05:55:28.207Z,992.59
2018-03-31T05:56:28.187Z,992.57
2018-03-31T05:57:28.169Z,992.65
2018-03-31T05:58:28.151Z,992.68
2018-03-31T05:59:28.131Z,992.70
2018-03-31T06:00:28.121Z,992.71
2018-03-31T06:01:28.093Z,992.67
2018-03-31T06:02:28.076Z,992.71
2018-03-31T06:03:28.075Z,992.69
2018-03-31T06:04:28.041Z,992.72
2018-03-31T06:05:28.019Z,992.68
2018-03-31T06:06:28.003Z,992.68
2018-03-31T06:07:27.981Z,992.71
2018-03-31T06:08:27.968Z,992.68
2018-03-31T06:09:27.946Z,992.67
2018-03-31T06:10:27.932Z,992.71
2018-03-31T06:11:27.908Z,992.68
2018-03-31T06:12:27.889Z,992.72
2018-03-31T06:13:27.880Z,992.71
2018-03-31T06:14:27.870Z,992.68
2018-03-31T06:15:27.841Z,992.71
2018-03-31T06:16:27.816Z,992.72
2018-03-31T06:17:27.803Z,992.78
2018-03-31T06:18:27.782Z,992.79
2018-03-31T06:19:27.777Z,992.84
2018-03-31T06:20:27.743Z,992.86
2018-03-31T06:21:27.726Z,992.86
2018-03-31T06:22:27.710Z,992.87
2018-03-31T06:23:27.693Z,992.90
2018-03-31T06:24:27.669Z,992.95
2018-03-31T06:25:27.660Z,992.94
2018-03-31T06:26:27.639Z,992.98
2018-03-31T06:27:27.618Z,993.00
2018-03-31T06:28:27.599Z,992.96
2018-03-31T06:29:27.580Z,993.00
2018-03-31T06:30:27.560Z,993.01
2018-03-31T06:31:27.543Z,992.98
2018-03-31T06:32:27.534Z,992.93
2018-03-31T06:33:27.510Z,993.01
2018-03-31T06:34:27.489Z,992.98
2018-03-31T06:35:27.467Z,992.97
2018-03-31T06:36:27.454Z,992.98
2018-03-31T06:37:27.476Z,993.01
2018-03-31T06:38:27.419Z,993.01
2018-03-31T06:39:27.400Z,993.02
2018-03-31T06:40:27.381Z,992.99
2018-03-31T06:41:27.365Z,992.99
2018-03-31T06:42:27.341Z,992.99
2018-03-31T06:43:27.326Z,992.98
2018-03-31T06:44:27.310Z,993.01
2018-03-31T06:45:27.291Z,993.06
2018-03-31T06:46:27.277Z,993.02
2018-03-31T06:47:27.258Z,993.04
2018-03-31T06:48:27.241Z,993.03
2018-03-31T06:49:27.220Z,993.03
2018-03-31T06:50:27.213Z,993.04
2018-03-31T06:51:27.187Z,993.05
2018-03-31T06:52:27.169Z,993.04
2018-03-31T06:53:27.160Z,993.01
2018-03-31T06:54:27.136Z,993.01
2018-03-31T06:55:27.129Z,993.04
2018-03-31T06:56:27.100Z,993.06
2018-03-31T06:57:27.085Z,993.13
2018-03-31T06:58:27.072Z,993.13
2018-03-31T06:59:27.090Z,993.19
2018-03-31T07:00:27.029Z,993.23
2018-03-31T07:01:27.014Z,993.32
2018-03-31T07:02:27.000Z,993.34
2018-03-31T07:03:27.000Z,993.36
2018-03-31T07:04:26.969Z,993.31
2018-03-31T07:05:26.949Z,993.43
2018-03-31T07:06:26.936Z,993.54
2018-03-31T07:07:27.032Z,993.61
2018-03-31T07:08:26.902Z,993.54
2018-03-31T07:09:27.038Z,993.59
2018-03-31T07:10:26.879Z,993.61
2018-03-31T07:11:26.932Z,993.58
2018-03-31T07:12:26.845Z,993.52
2018-03-31T07:13:26.839Z,993.43
2018-03-31T07:14:26.819Z,993.55
2018-03-31T07:15:26.839Z,993.63
2018-03-31T07:16:26.792Z,993.65
2018-03-31T07:17:26.789Z,993.71
2018-03-31T07:18:26.770Z,993.79
2018-03-31T07:19:26.763Z,993.87
2018-03-31T07:20:26.744Z,993.91
2018-03-31T07:21:26.836Z,993.95
2018-03-31T07:22:26.726Z,993.94
2018-03-31T07:23:26.719Z,993.98
2018-03-31T07:24:26.710Z,993.91
2018-03-31T07:25:26.702Z,993.97
2018-03-31T07:26:26.690Z,993.97
2018-03-31T07:27:26.679Z,993.94
2018-03-31T07:28:26.671Z,993.91
2018-03-31T07:29:26.723Z,993.94
2018-03-31T07:30:26.651Z,993.96
2018-03-31T07:31:26.651Z,994.04
2018-03-31T07:32:26.642Z,994.00
2018-03-31T07:33:26.631Z,994.03
2018-03-31T07:34:26.629Z,994.06
2018-03-31T07:35:26.617Z,994.07
2018-03-31T07:36:26.606Z,994.11
2018-03-31T07:37:26.598Z,994.08
2018-03-31T07:38:26.598Z,994.11
2018-03-31T07:39:26.589Z,994.10
2018-03-31T07:40:26.588Z,994.14
2018-03-31T07:41:26.590Z,994.19
2018-03-31T07:42:26.577Z,994.15
2018-03-31T07:43:26.570Z,994.10
2018-03-31T07:44:26.579Z,994.13
2018-03-31T07:45:26.566Z,994.07
2018-03-31T07:46:26.862Z,994.16
2018-03-31T07:47:26.559Z,994.08
2018-03-31T07:48:26.560Z,994.05
2018-03-31T07:49:26.547Z,994.06
2018-03-31T07:50:26.640Z,994.14
2018-03-31T07:51:26.546Z,994.08
2018-03-31T07:52:26.741Z,994.03
2018-03-31T07:53:26.540Z,993.97
2018-03-31T07:54:26.644Z,994.01
2018-03-31T07:55:26.529Z,993.98
2018-03-31T07:56:26.583Z,994.07
2018-03-31T07:57:26.528Z,994.07
2018-03-31T07:58:26.527Z,994.12
2018-03-31T07:59:26.519Z,993.99
2018-03-31T08:00:26.525Z,994.13
2018-03-31T08:01:26.521Z,994.13
2018-03-31T08:02:26.517Z,994.25
2018-03-31T08:03:26.521Z,994.31
2018-03-31T08:04:26.519Z,994.16
2018-03-31T08:05:26.515Z,994.18
2018-03-31T08:06:26.518Z,994.23
2018-03-31T08:07:26.510Z,994.24
2018-03-31T08:08:26.511Z,994.22
2018-03-31T08:09:26.510Z,994.18
2018-03-31T08:10:26.504Z,994.13
2018-03-31T08:11:26.503Z,994.23
2018-03-31T08:12:26.504Z,994.34
2018-03-31T08:13:26.510Z,994.32
2018-03-31T08:14:26.498Z,994.26
2018-03-31T08:15:26.505Z,994.22
2018-03-31T08:16:26.514Z,994.22
2018-03-31T08:17:26.515Z,994.18
2018-03-31T08:18:26.504Z,994.21
2018-03-31T08:19:26.503Z,994.15
2018-03-31T08:20:26.501Z,994.20
2018-03-31T08:21:26.501Z,994.02
2018-03-31T08:22:26.504Z,994.05
2018-03-31T08:23:26.497Z,994.11
2018-03-31T08:24:26.496Z,994.14
2018-03-31T08:25:26.498Z,994.10
2018-03-31T08:26:26.495Z,994.20
2018-03-31T08:27:26.498Z,994.22
2018-03-31T08:28:26.497Z,994.26
2018-03-31T08:29:26.494Z,994.28
2018-03-31T08:30:26.521Z,994.29
2018-03-31T08:31:26.489Z,994.24
2018-03-31T08:32:26.498Z,994.21
2018-03-31T08:33:26.491Z,994.27
2018-03-31T08:34:26.492Z,994.28
2018-03-31T08:35:26.485Z,994.26
2018-03-31T08:36:26.489Z,994.29
2018-03-31T08:37:26.491Z,994.29
2018-03-31T08:38:26.485Z,994.29
2018-03-31T08:39:26.489Z,994.35
2018-03-31T08:40:26.491Z,994.42
2018-03-31T08:41:26.492Z,994.46
2018-03-31T08:42:26.489Z,994.48
2018-03-31T08:43:26.490Z,994.45
2018-03-31T08:44:26.482Z,994.31
2018-03-31T08:45:26.481Z,994.43
2018-03-31T08:46:26.481Z,994.36
2018-03-31T08:47:26.481Z,994.31
2018-03-31T08:48:26.483Z,994.36
2018-03-31T08:49:26.482Z,994.34
2018-03-31T08:50:26.495Z,994.40
2018-03-31T08:51:26.481Z,994.42
2018-03-31T08:52:26.483Z,994.45
2018-03-31T08:53:26.482Z,994.43
2018-03-31T08:54:26.484Z,994.41
2018-03-31T08:55:26.532Z,994.41
2018-03-31T08:56:26.482Z,994.51
2018-03-31T08:57:26.494Z,994.55
2018-03-31T08:58:26.483Z,994.56
2018-03-31T08:59:26.482Z,994.56
2018-03-31T09:00:26.487Z,994.53
2018-03-31T09:01:26.482Z,994.47
2018-03-31T09:02:26.492Z,994.37
2018-03-31T09:03:26.484Z,994.35
2018-03-31T09:04:26.482Z,994.40
2018-03-31T09:05:26.482Z,994.41
2018-03-31T09:06:26.480Z,994.34
2018-03-31T09:07:26.476Z,994.33
2018-03-31T09:08:26.478Z,994.24
2018-03-31T09:09:26.480Z,994.20
2018-03-31T09:10:26.484Z,994.31
2018-03-31T09:11:26.481Z,994.35
2018-03-31T09:12:26.470Z,994.29
2018-03-31T09:13:26.474Z,994.33
2018-03-31T09:14:26.472Z,994.42
2018-03-31T09:15:26.467Z,994.43
2018-03-31T09:16:26.479Z,994.45
2018-03-31T09:17:26.532Z,994.45
2018-03-31T09:18:26.463Z,994.50
2018-03-31T09:19:26.456Z,994.42
2018-03-31T09:20:26.487Z,994.41
2018-03-31T09:21:26.451Z,994.42
2018-03-31T09:22:26.452Z,994.37
2018-03-31T09:23:26.452Z,994.34
2018-03-31T09:24:26.443Z,994.29
2018-03-31T09:25:26.448Z,994.42
2018-03-31T09:26:26.446Z,994.38
2018-03-31T09:27:26.446Z,994.30
2018-03-31T09:28:26.438Z,994.33
2018-03-31T09:29:26.436Z,994.41
2018-03-31T09:30:26.438Z,994.45
2018-03-31T09:31:26.433Z,994.47
2018-03-31T09:32:26.431Z,994.46
2018-03-31T09:33:26.425Z,994.50
2018-03-31T09:34:26.421Z,994.53
2018-03-31T09:35:26.418Z,994.54
2018-03-31T09:36:26.450Z,994.41
2018-03-31T09:37:26.411Z,994.50
2018-03-31T09:38:26.430Z,994.58
2018-03-31T09:39:26.423Z,994.50
2018-03-31T09:40:26.402Z,994.28
2018-03-31T09:41:26.398Z,994.05
2018-03-31T09:42:26.389Z,994.04
2018-03-31T09:43:26.386Z,994.05
2018-03-31T09:44:26.386Z,994.05
2018-03-31T09:45:26.380Z,994.04
2018-03-31T09:46:26.383Z,994.06
2018-03-31T09:47:26.376Z,994.01
2018-03-31T09:48:26.371Z,994.04
2018-03-31T09:49:26.360Z,994.01
2018-03-31T09:50:26.364Z,993.91
2018-03-31T09:51:26.360Z,993.98
2018-03-31T09:52:26.466Z,993.91
2018-03-31T09:53:26.358Z,993.93
2018-03-31T09:54:26.341Z,993.95
2018-03-31T09:55:26.335Z,993.94
2018-03-31T09:56:26.331Z,993.89
2018-03-31T09:57:26.333Z,993.90
2018-03-31T09:58:26.320Z,993.96
2018-03-31T09:59:26.328Z,993.93
2018-03-31T10:00:26.362Z,993.95
2018-03-31T10:01:26.309Z,993.92
2018-03-31T10:02:26.300Z,993.93
2018-03-31T10:03:26.290Z,993.88
2018-03-31T10:04:26.304Z,993.87
2018-03-31T10:05:26.280Z,993.84
2018-03-31T10:06:26.279Z,993.86
2018-03-31T10:07:26.280Z,993.86
2018-03-31T10:08:26.270Z,993.87
2018-03-31T10:09:26.257Z,993.88
2018-03-31T10:10:26.271Z,993.83
2018-03-31T10:11:26.250Z,993.85
2018-03-31T10:12:26.251Z,993.77
2018-03-31T10:13:26.246Z,993.85
2018-03-31T10:14:26.238Z,993.90
2018-03-31T10:15:26.235Z,993.88
2018-03-31T10:16:26.220Z,993.79
2018-03-31T10:17:26.214Z,993.76
2018-03-31T10:18:26.215Z,993.79
2018-03-31T10:19:26.249Z,993.88
2018-03-31T10:20:26.194Z,993.89
2018-03-31T10:21:26.187Z,993.89
2018-03-31T10:22:26.178Z,993.89
2018-03-31T10:23:26.178Z,993.89
2018-03-31T10:24:26.169Z,993.93
2018-03-31T10:25:26.162Z,993.86
2018-03-31T10:26:26.158Z,993.91
2018-03-31T10:27:26.144Z,993.94
2018-03-31T10:28:26.140Z,993.87
2018-03-31T10:29:26.182Z,993.87
2018-03-31T10:30:26.136Z,993.85
2018-03-31T10:31:26.117Z,993.87
2018-03-31T10:32:26.111Z,993.87
2018-03-31T10:33:26.110Z,993.89
2018-03-31T10:34:26.107Z,993.79
2018-03-31T10:35:26.092Z,993.90
2018-03-31T10:36:26.157Z,993.92
2018-03-31T10:37:26.074Z,993.93
2018-03-31T10:38:26.066Z,993.97
2018-03-31T10:39:26.057Z,993.95
2018-03-31T10:40:26.052Z,993.95
2018-03-31T10:41:26.042Z,993.94
2018-03-31T10:42:26.033Z,993.90
2018-03-31T10:43:26.026Z,993.85
2018-03-31T10:44:26.022Z,993.93
2018-03-31T10:45:26.012Z,993.94
2018-03-31T10:46:26.001Z,993.97
2018-03-31T10:47:26.022Z,993.92
2018-03-31T10:48:25.992Z,993.93
2018-03-31T10:49:25.977Z,993.96
2018-03-31T10:50:25.974Z,993.98
2018-03-31T10:51:25.964Z,994.01
2018-03-31T10:52:25.962Z,994.01
2018-03-31T10:53:25.956Z,994.01
2018-03-31T10:54:25.951Z,994.02
2018-03-31T10:55:25.943Z,994.02
2018-03-31T10:56:25.924Z,994.01
2018-03-31T10:57:25.917Z,994.00
2018-03-31T10:58:25.909Z,993.96
2018-03-31T10:59:25.906Z,993.95
2018-03-31T11:00:25.951Z,993.97
2018-03-31T11:01:25.880Z,994.01
2018-03-31T11:02:25.875Z,993.94
2018-03-31T11:03:25.864Z,993.89
2018-03-31T11:04:25.961Z,993.87
2018-03-31T11:05:25.849Z,993.95
2018-03-31T11:06:25.941Z,993.96
2018-03-31T11:07:25.832Z,993.91
2018-03-31T11:08:25.831Z,993.96
2018-03-31T11:09:25.821Z,993.90
2018-03-31T11:10:25.810Z,993.89
2018-03-31T11:11:25.799Z,993.92
2018-03-31T11:12:25.788Z,994.01
2018-03-31T11:13:25.778Z,994.03
2018-03-31T11:14:25.833Z,994.04
2018-03-31T11:15:25.761Z,994.04
2018-03-31T11:16:25.756Z,994.00
2018-03-31T11:17:25.755Z,994.02
2018-03-31T11:18:25.743Z,994.02
2018-03-31T11:19:25.724Z,993.99
2018-03-31T11:20:25.716Z,994.02
2018-03-31T11:21:25.711Z,994.01
2018-03-31T11:22:25.703Z,994.02
2018-03-31T11:23:25.692Z,993.99
2018-03-31T11:24:25.686Z,994.01
2018-03-31T11:25:25.672Z,993.98
2018-03-31T11:26:25.659Z,994.00
2018-03-31T11:27:25.652Z,994.01
2018-03-31T11:28:25.642Z,994.01
2018-03-31T11:29:25.640Z,994.02
2018-03-31T11:30:25.624Z,994.03
2018-03-31T11:31:25.620Z,994.04
2018-03-31T11:32:25.621Z,994.02
2018-03-31T11:33:25.601Z,993.99
2018-03-31T11:34:25.612Z,993.94
2018-03-31T11:35:25.576Z,994.01
2018-03-31T11:36:25.572Z,994.00
2018-03-31T11:37:25.571Z,994.00
2018-03-31T11:38:25.553Z,994.00
2018-03-31T11:39:25.552Z,993.96
2018-03-31T11:40:25.541Z,993.99
2018-03-31T11:41:25.540Z,993.94
2018-03-31T11:42:25.550Z,993.94
2018-03-31T11:43:25.507Z,993.92
2018-03-31T11:44:25.502Z,993.93
2018-03-31T11:45:25.501Z,993.91
2018-03-31T11:46:25.485Z,993.87
2018-03-31T11:47:25.482Z,993.87
2018-03-31T11:48:25.469Z,993.92
2018-03-31T11:49:25.457Z,993.88
2018-03-31T11:50:25.447Z,993.85
2018-03-31T11:51:25.450Z,993.79
2018-03-31T11:52:25.431Z,993.91
2018-03-31T11:53:25.431Z,993.88
2018-03-31T11:54:25.453Z,993.86
2018-03-31T11:55:25.466Z,993.84
2018-03-31T11:56:25.394Z,993.82
2018-03-31T11:57:25.389Z,993.71
2018-03-31T11:58:25.375Z,993.73
2018-03-31T11:59:25.386Z,993.80
2018-03-31T12:00:25.358Z,993.80
2018-03-31T12:01:25.354Z,993.83
2018-03-31T12:02:25.344Z,993.79
2018-03-31T12:03:25.341Z,993.78
2018-03-31T12:04:25.354Z,993.77
2018-03-31T12:05:25.317Z,993.83
2018-03-31T12:06:25.308Z,993.84
2018-03-31T12:07:25.296Z,993.84
2018-03-31T12:08:25.289Z,993.87
2018-03-31T12:09:25.285Z,993.84
2018-03-31T12:10:25.271Z,993.89
2018-03-31T12:11:25.261Z,993.87
2018-03-31T12:12:25.252Z,993.83
2018-03-31T12:13:25.240Z,993.86
2018-03-31T12:14:25.230Z,993.85
2018-03-31T12:15:25.219Z,993.83
2018-03-31T12:16:25.219Z,993.82
2018-03-31T12:17:25.209Z,993.81
2018-03-31T12:18:25.200Z,993.82
2018-03-31T12:19:25.190Z,993.77
2018-03-31T12:20:25.179Z,993.76
2018-03-31T12:21:25.167Z,993.77
2018-03-31T12:22:25.159Z,993.78
2018-03-31T12:23:25.158Z,993.79
2018-03-31T12:24:25.149Z,993.80
2018-03-31T12:25:25.142Z,993.79
2018-03-31T12:26:25.130Z,993.80
2018-03-31T12:27:25.121Z,993.80
2018-03-31T12:28:25.106Z,993.76